sensor_id;sensor_type;location;lat;lon;timestamp;P1;durP1;ratioP1;P2;durP2;ratioP2
26038;SDS011;13815;52.374;4.882;2023-03-31T00:02:00;0.17;;;0.17;;
26038;SDS011;13815;52.374;4.882;2023-03-31T00:04:26;0.65;;;0.65;;
26038;SDS011;13815;52.374;4.882;2023-03-31T00:06:52;2.80;;;0.77;;
26038;SDS011;13815;52.374;4.882;2023-03-31T00:09:18;0.73;;;0.52;;
26038;SDS011;13815;52.374;4.882;2023-03-31T00:11:46;4.68;;;1.10;;
26038;SDS011;13815;52.374;4.882;2023-03-31T00:14:12;0.88;;;0.70;;
26038;SDS011;13815;52.374;4.882;2023-03-31T00:16:39;0.70;;;0.70;;
26038;SDS011;13815;52.374;4.882;2023-03-31T00:19:05;0.85;;;0.85;;
26038;SDS011;13815;52.374;4.882;2023-03-31T00:21:34;0.35;;;0.35;;
26038;SDS011;13815;52.374;4.882;2023-03-31T00:24:04;0.60;;;0.50;;
26038;SDS011;13815;52.374;4.882;2023-03-31T00:26:31;0.95;;;0.82;;
26038;SDS011;13815;52.374;4.882;2023-03-31T00:28:57;0.50;;;0.50;;
26038;SDS011;13815;52.374;4.882;2023-03-31T00:31:23;0.10;;;0.10;;
26038;SDS011;13815;52.374;4.882;2023-03-31T00:33:49;0.50;;;0.50;;
26038;SDS011;13815;52.374;4.882;2023-03-31T00:36:15;0.40;;;0.40;;
26038;SDS011;13815;52.374;4.882;2023-03-31T00:38:51;4.38;;;1.20;;
26038;SDS011;13815;52.374;4.882;2023-03-31T00:41:17;0.20;;;0.20;;
26038;SDS011;13815;52.374;4.882;2023-03-31T00:44:00;6.93;;;0.75;;
26038;SDS011;13815;52.374;4.882;2023-03-31T00:46:33;0.30;;;0.30;;
26038;SDS011;13815;52.374;4.882;2023-03-31T00:49:13;3.20;;;0.65;;
26038;SDS011;13815;52.374;4.882;2023-03-31T00:51:44;0.30;;;0.30;;
26038;SDS011;13815;52.374;4.882;2023-03-31T00:54:10;3.60;;;0.60;;
26038;SDS011;13815;52.374;4.882;2023-03-31T00:56:37;0.20;;;0.20;;
26038;SDS011;13815;52.374;4.882;2023-03-31T00:59:05;0.40;;;0.40;;
26038;SDS011;13815;52.374;4.882;2023-03-31T01:01:32;3.45;;;0.82;;
26038;SDS011;13815;52.374;4.882;2023-03-31T01:03:59;0.30;;;0.30;;
26038;SDS011;13815;52.374;4.882;2023-03-31T01:06:26;3.55;;;0.73;;
26038;SDS011;13815;52.374;4.882;2023-03-31T01:08:55;0.30;;;0.30;;
26038;SDS011;13815;52.374;4.882;2023-03-31T01:11:21;0.20;;;0.20;;
26038;SDS011;13815;52.374;4.882;2023-03-31T01:13:49;0.50;;;0.50;;
26038;SDS011;13815;52.374;4.882;2023-03-31T01:16:16;0.30;;;0.30;;
26038;SDS011;13815;52.374;4.882;2023-03-31T01:18:42;0.50;;;0.50;;
26038;SDS011;13815;52.374;4.882;2023-03-31T01:43:22;1.02;;;0.10;;
26038;SDS011;13815;52.374;4.882;2023-03-31T01:48:20;0.00;;;0.00;;
26038;SDS011;13815;52.374;4.882;2023-03-31T01:51:02;0.00;;;0.00;;
26038;SDS011;13815;52.374;4.882;2023-03-31T02:04:25;0.22;;;0.00;;
26038;SDS011;13815;52.374;4.882;2023-03-31T02:06:58;0.00;;;0.00;;
26038;SDS011;13815;52.374;4.882;2023-03-31T02:09:29;0.00;;;0.00;;
26038;SDS011;13815;52.374;4.882;2023-03-31T02:11:57;1.65;;;0.20;;
26038;SDS011;13815;52.374;4.882;2023-03-31T02:14:25;2.03;;;0.22;;
26038;SDS011;13815;52.374;4.882;2023-03-31T02:16:53;0.00;;;0.00;;
26038;SDS011;13815;52.374;4.882;2023-03-31T02:19:22;0.00;;;0.00;;
26038;SDS011;13815;52.374;4.882;2023-03-31T02:21:51;0.00;;;0.00;;
26038;SDS011;13815;52.374;4.882;2023-03-31T02:24:18;0.00;;;0.00;;
26038;SDS011;13815;52.374;4.882;2023-03-31T02:26:54;2.65;;;0.22;;
26038;SDS011;13815;52.374;4.882;2023-03-31T02:29:20;0.00;;;0.00;;
26038;SDS011;13815;52.374;4.882;2023-03-31T02:31:47;3.50;;;0.20;;
26038;SDS011;13815;52.374;4.882;2023-03-31T02:34:15;0.00;;;0.00;;
26038;SDS011;13815;52.374;4.882;2023-03-31T02:36:41;0.00;;;0.00;;
26038;SDS011;13815;52.374;4.882;2023-03-31T02:39:11;0.00;;;0.00;;
26038;SDS011;13815;52.374;4.882;2023-03-31T02:41:40;0.00;;;0.00;;
26038;SDS011;13815;52.374;4.882;2023-03-31T02:44:05;0.00;;;0.00;;
26038;SDS011;13815;52.374;4.882;2023-03-31T02:46:30;0.00;;;0.00;;
26038;SDS011;13815;52.374;4.882;2023-03-31T02:48:56;0.00;;;0.00;;
26038;SDS011;13815;52.374;4.882;2023-03-31T03:02:17;0.00;;;0.00;;
26038;SDS011;13815;52.374;4.882;2023-03-31T03:05:12;0.00;;;0.00;;
26038;SDS011;13815;52.374;4.882;2023-03-31T03:15:47;0.00;;;0.00;;
26038;SDS011;13815;52.374;4.882;2023-03-31T03:18:15;0.10;;;0.00;;
26038;SDS011;13815;52.374;4.882;2023-03-31T03:20:41;0.00;;;0.00;;
26038;SDS011;13815;52.374;4.882;2023-03-31T03:23:12;0.00;;;0.00;;
26038;SDS011;13815;52.374;4.882;2023-03-31T03:25:37;0.00;;;0.00;;
26038;SDS011;13815;52.374;4.882;2023-03-31T03:28:03;0.00;;;0.00;;
26038;SDS011;13815;52.374;4.882;2023-03-31T03:30:28;6.05;;;0.52;;
26038;SDS011;13815;52.374;4.882;2023-03-31T03:32:53;0.00;;;0.00;;
26038;SDS011;13815;52.374;4.882;2023-03-31T03:35:20;0.00;;;0.00;;
26038;SDS011;13815;52.374;4.882;2023-03-31T03:37:45;2.63;;;0.20;;
26038;SDS011;13815;52.374;4.882;2023-03-31T03:40:11;0.00;;;0.00;;
26038;SDS011;13815;52.374;4.882;2023-03-31T03:42:36;1.98;;;0.15;;
26038;SDS011;13815;52.374;4.882;2023-03-31T03:45:02;0.00;;;0.00;;
26038;SDS011;13815;52.374;4.882;2023-03-31T03:47:28;0.00;;;0.00;;
26038;SDS011;13815;52.374;4.882;2023-03-31T03:49:53;0.00;;;0.00;;
26038;SDS011;13815;52.374;4.882;2023-03-31T03:52:19;0.00;;;0.00;;
26038;SDS011;13815;52.374;4.882;2023-03-31T03:54:45;0.00;;;0.00;;
26038;SDS011;13815;52.374;4.882;2023-03-31T03:57:10;1.13;;;0.10;;
26038;SDS011;13815;52.374;4.882;2023-03-31T03:59:36;0.00;;;0.00;;
26038;SDS011;13815;52.374;4.882;2023-03-31T04:02:01;0.00;;;0.00;;
26038;SDS011;13815;52.374;4.882;2023-03-31T04:04:26;4.85;;;0.43;;
26038;SDS011;13815;52.374;4.882;2023-03-31T04:06:52;0.00;;;0.00;;
26038;SDS011;13815;52.374;4.882;2023-03-31T04:09:17;0.00;;;0.00;;
26038;SDS011;13815;52.374;4.882;2023-03-31T04:11:42;0.00;;;0.00;;
26038;SDS011;13815;52.374;4.882;2023-03-31T04:14:08;0.00;;;0.00;;
26038;SDS011;13815;52.374;4.882;2023-03-31T04:16:33;0.00;;;0.00;;
26038;SDS011;13815;52.374;4.882;2023-03-31T04:18:59;0.00;;;0.00;;
26038;SDS011;13815;52.374;4.882;2023-03-31T04:21:28;0.00;;;0.00;;
26038;SDS011;13815;52.374;4.882;2023-03-31T04:23:54;1.33;;;0.10;;
26038;SDS011;13815;52.374;4.882;2023-03-31T04:26:26;0.00;;;0.00;;
26038;SDS011;13815;52.374;4.882;2023-03-31T04:29:05;2.65;;;0.22;;
26038;SDS011;13815;52.374;4.882;2023-03-31T04:31:31;0.00;;;0.00;;
26038;SDS011;13815;52.374;4.882;2023-03-31T04:33:57;0.00;;;0.00;;
26038;SDS011;13815;52.374;4.882;2023-03-31T04:36:26;2.28;;;0.22;;
26038;SDS011;13815;52.374;4.882;2023-03-31T04:38:53;2.45;;;0.20;;
26038;SDS011;13815;52.374;4.882;2023-03-31T04:41:22;2.00;;;0.25;;
26038;SDS011;13815;52.374;4.882;2023-03-31T04:43:48;0.00;;;0.00;;
26038;SDS011;13815;52.374;4.882;2023-03-31T04:46:13;0.00;;;0.00;;
26038;SDS011;13815;52.374;4.882;2023-03-31T04:48:39;2.10;;;0.15;;
26038;SDS011;13815;52.374;4.882;2023-03-31T04:51:04;0.00;;;0.00;;
26038;SDS011;13815;52.374;4.882;2023-03-31T04:53:30;0.00;;;0.00;;
26038;SDS011;13815;52.374;4.882;2023-03-31T04:55:56;2.55;;;0.25;;
26038;SDS011;13815;52.374;4.882;2023-03-31T04:58:23;0.00;;;0.00;;
26038;SDS011;13815;52.374;4.882;2023-03-31T05:00:49;2.17;;;0.25;;
26038;SDS011;13815;52.374;4.882;2023-03-31T05:03:15;0.00;;;0.00;;
26038;SDS011;13815;52.374;4.882;2023-03-31T05:05:40;0.00;;;0.00;;
26038;SDS011;13815;52.374;4.882;2023-03-31T05:08:06;0.00;;;0.00;;
26038;SDS011;13815;52.374;4.882;2023-03-31T05:10:31;0.00;;;0.00;;
26038;SDS011;13815;52.374;4.882;2023-03-31T05:12:57;0.00;;;0.00;;
26038;SDS011;13815;52.374;4.882;2023-03-31T05:15:23;0.00;;;0.00;;
26038;SDS011;13815;52.374;4.882;2023-03-31T05:17:49;0.00;;;0.00;;
26038;SDS011;13815;52.374;4.882;2023-03-31T05:20:14;0.00;;;0.00;;
26038;SDS011;13815;52.374;4.882;2023-03-31T05:22:40;5.38;;;0.45;;
26038;SDS011;13815;52.374;4.882;2023-03-31T05:25:06;0.00;;;0.00;;
26038;SDS011;13815;52.374;4.882;2023-03-31T05:27:33;0.00;;;0.00;;
26038;SDS011;13815;52.374;4.882;2023-03-31T05:29:59;2.45;;;0.25;;
26038;SDS011;13815;52.374;4.882;2023-03-31T05:32:25;0.15;;;0.00;;
26038;SDS011;13815;52.374;4.882;2023-03-31T05:34:51;2.20;;;0.15;;
26038;SDS011;13815;52.374;4.882;2023-03-31T05:37:19;0.00;;;0.00;;
26038;SDS011;13815;52.374;4.882;2023-03-31T05:39:45;0.00;;;0.00;;
26038;SDS011;13815;52.374;4.882;2023-03-31T05:42:10;0.00;;;0.00;;
26038;SDS011;13815;52.374;4.882;2023-03-31T05:44:36;0.00;;;0.00;;
26038;SDS011;13815;52.374;4.882;2023-03-31T05:47:01;0.00;;;0.00;;
26038;SDS011;13815;52.374;4.882;2023-03-31T05:49:26;0.00;;;0.00;;
26038;SDS011;13815;52.374;4.882;2023-03-31T05:51:52;0.00;;;0.00;;
26038;SDS011;13815;52.374;4.882;2023-03-31T05:54:17;0.00;;;0.00;;
26038;SDS011;13815;52.374;4.882;2023-03-31T05:56:43;0.70;;;0.10;;
26038;SDS011;13815;52.374;4.882;2023-03-31T05:59:08;0.00;;;0.00;;
26038;SDS011;13815;52.374;4.882;2023-03-31T06:01:33;1.10;;;0.10;;
26038;SDS011;13815;52.374;4.882;2023-03-31T06:03:59;2.08;;;0.20;;
26038;SDS011;13815;52.374;4.882;2023-03-31T06:06:24;0.00;;;0.00;;
26038;SDS011;13815;52.374;4.882;2023-03-31T06:08:50;0.20;;;0.03;;
26038;SDS011;13815;52.374;4.882;2023-03-31T06:11:17;0.00;;;0.00;;
26038;SDS011;13815;52.374;4.882;2023-03-31T06:13:44;0.00;;;0.00;;
26038;SDS011;13815;52.374;4.882;2023-03-31T06:16:11;2.55;;;0.20;;
26038;SDS011;13815;52.374;4.882;2023-03-31T06:18:37;0.00;;;0.00;;
26038;SDS011;13815;52.374;4.882;2023-03-31T06:21:03;0.00;;;0.00;;
26038;SDS011;13815;52.374;4.882;2023-03-31T06:23:29;5.68;;;0.43;;
26038;SDS011;13815;52.374;4.882;2023-03-31T06:25:58;0.00;;;0.00;;
26038;SDS011;13815;52.374;4.882;2023-03-31T06:28:26;3.13;;;0.22;;
26038;SDS011;13815;52.374;4.882;2023-03-31T06:30:58;0.00;;;0.00;;
26038;SDS011;13815;52.374;4.882;2023-03-31T06:33:24;0.00;;;0.00;;
26038;SDS011;13815;52.374;4.882;2023-03-31T06:35:49;6.32;;;0.47;;
26038;SDS011;13815;52.374;4.882;2023-03-31T06:38:15;0.00;;;0.00;;
26038;SDS011;13815;52.374;4.882;2023-03-31T06:40:40;0.00;;;0.00;;
26038;SDS011;13815;52.374;4.882;2023-03-31T06:43:06;4.57;;;0.47;;
26038;SDS011;13815;52.374;4.882;2023-03-31T06:45:35;0.00;;;0.00;;
26038;SDS011;13815;52.374;4.882;2023-03-31T06:48:01;0.00;;;0.00;;
26038;SDS011;13815;52.374;4.882;2023-03-31T06:50:26;2.75;;;0.25;;
26038;SDS011;13815;52.374;4.882;2023-03-31T06:52:51;0.00;;;0.00;;
26038;SDS011;13815;52.374;4.882;2023-03-31T06:55:19;2.72;;;0.22;;
26038;SDS011;13815;52.374;4.882;2023-03-31T06:57:44;0.00;;;0.00;;
26038;SDS011;13815;52.374;4.882;2023-03-31T07:00:10;0.00;;;0.00;;
26038;SDS011;13815;52.374;4.882;2023-03-31T07:02:35;0.00;;;0.00;;
26038;SDS011;13815;52.374;4.882;2023-03-31T07:05:01;0.00;;;0.00;;
26038;SDS011;13815;52.374;4.882;2023-03-31T07:07:29;0.00;;;0.00;;
26038;SDS011;13815;52.374;4.882;2023-03-31T07:09:56;4.88;;;0.43;;
26038;SDS011;13815;52.374;4.882;2023-03-31T07:12:21;0.00;;;0.00;;
26038;SDS011;13815;52.374;4.882;2023-03-31T07:14:48;2.28;;;0.22;;
26038;SDS011;13815;52.374;4.882;2023-03-31T07:17:13;0.00;;;0.00;;
26038;SDS011;13815;52.374;4.882;2023-03-31T07:19:39;0.00;;;0.00;;
26038;SDS011;13815;52.374;4.882;2023-03-31T07:22:06;4.50;;;0.43;;
26038;SDS011;13815;52.374;4.882;2023-03-31T07:24:32;0.00;;;0.00;;
26038;SDS011;13815;52.374;4.882;2023-03-31T07:26:57;2.00;;;0.20;;
26038;SDS011;13815;52.374;4.882;2023-03-31T07:29:22;0.17;;;0.00;;
26038;SDS011;13815;52.374;4.882;2023-03-31T07:31:48;0.00;;;0.00;;
26038;SDS011;13815;52.374;4.882;2023-03-31T07:34:13;0.00;;;0.00;;
26038;SDS011;13815;52.374;4.882;2023-03-31T07:36:39;2.33;;;0.20;;
26038;SDS011;13815;52.374;4.882;2023-03-31T07:39:04;0.00;;;0.00;;
26038;SDS011;13815;52.374;4.882;2023-03-31T07:41:30;1.27;;;0.15;;
26038;SDS011;13815;52.374;4.882;2023-03-31T07:43:56;1.30;;;0.20;;
26038;SDS011;13815;52.374;4.882;2023-03-31T07:46:22;0.00;;;0.00;;
26038;SDS011;13815;52.374;4.882;2023-03-31T07:48:50;1.98;;;0.20;;
26038;SDS011;13815;52.374;4.882;2023-03-31T07:51:18;0.00;;;0.00;;
26038;SDS011;13815;52.374;4.882;2023-03-31T07:53:45;0.00;;;0.00;;
26038;SDS011;13815;52.374;4.882;2023-03-31T07:56:13;4.18;;;0.52;;
26038;SDS011;13815;52.374;4.882;2023-03-31T07:58:38;0.00;;;0.00;;
26038;SDS011;13815;52.374;4.882;2023-03-31T08:01:04;0.00;;;0.00;;
26038;SDS011;13815;52.374;4.882;2023-03-31T08:03:30;2.53;;;0.20;;
26038;SDS011;13815;52.374;4.882;2023-03-31T08:05:56;0.00;;;0.00;;
26038;SDS011;13815;52.374;4.882;2023-03-31T08:08:21;0.00;;;0.00;;
26038;SDS011;13815;52.374;4.882;2023-03-31T08:10:48;2.20;;;0.25;;
26038;SDS011;13815;52.374;4.882;2023-03-31T08:13:14;1.35;;;0.20;;
26038;SDS011;13815;52.374;4.882;2023-03-31T08:15:39;1.30;;;0.10;;
26038;SDS011;13815;52.374;4.882;2023-03-31T08:18:04;0.00;;;0.00;;
26038;SDS011;13815;52.374;4.882;2023-03-31T08:20:30;0.00;;;0.00;;
26038;SDS011;13815;52.374;4.882;2023-03-31T08:22:56;1.85;;;0.17;;
26038;SDS011;13815;52.374;4.882;2023-03-31T08:25:21;0.00;;;0.00;;
26038;SDS011;13815;52.374;4.882;2023-03-31T08:27:48;0.00;;;0.00;;
26038;SDS011;13815;52.374;4.882;2023-03-31T08:30:15;0.70;;;0.10;;
26038;SDS011;13815;52.374;4.882;2023-03-31T08:32:41;0.00;;;0.00;;
26038;SDS011;13815;52.374;4.882;2023-03-31T08:35:07;0.00;;;0.00;;
26038;SDS011;13815;52.374;4.882;2023-03-31T08:37:33;4.22;;;0.47;;
26038;SDS011;13815;52.374;4.882;2023-03-31T08:39:59;0.00;;;0.00;;
26038;SDS011;13815;52.374;4.882;2023-03-31T08:44:58;0.00;;;0.00;;
26038;SDS011;13815;52.374;4.882;2023-03-31T08:47:28;0.00;;;0.00;;
26038;SDS011;13815;52.374;4.882;2023-03-31T08:50:29;5.30;;;0.45;;
26038;SDS011;13815;52.374;4.882;2023-03-31T08:53:03;0.00;;;0.00;;
26038;SDS011;13815;52.374;4.882;2023-03-31T08:55:44;0.00;;;0.00;;
26038;SDS011;13815;52.374;4.882;2023-03-31T09:00:57;0.00;;;0.00;;
26038;SDS011;13815;52.374;4.882;2023-03-31T09:03:44;6.35;;;0.73;;
26038;SDS011;13815;52.374;4.882;2023-03-31T09:06:21;2.47;;;0.15;;
26038;SDS011;13815;52.374;4.882;2023-03-31T09:08:51;0.00;;;0.00;;
26038;SDS011;13815;52.374;4.882;2023-03-31T09:19:17;0.00;;;0.00;;
26038;SDS011;13815;52.374;4.882;2023-03-31T09:21:49;0.00;;;0.00;;
26038;SDS011;13815;52.374;4.882;2023-03-31T09:24:29;0.00;;;0.00;;
26038;SDS011;13815;52.374;4.882;2023-03-31T09:27:01;3.13;;;0.25;;
26038;SDS011;13815;52.374;4.882;2023-03-31T09:32:15;0.57;;;0.05;;
26038;SDS011;13815;52.374;4.882;2023-03-31T09:34:43;0.00;;;0.00;;
26038;SDS011;13815;52.374;4.882;2023-03-31T09:37:11;0.00;;;0.00;;
26038;SDS011;13815;52.374;4.882;2023-03-31T09:39:37;3.70;;;0.40;;
26038;SDS011;13815;52.374;4.882;2023-03-31T09:42:03;0.10;;;0.10;;
26038;SDS011;13815;52.374;4.882;2023-03-31T09:44:33;2.42;;;0.52;;
26038;SDS011;13815;52.374;4.882;2023-03-31T09:47:01;0.55;;;0.55;;
26038;SDS011;13815;52.374;4.882;2023-03-31T09:49:31;0.60;;;0.60;;
26038;SDS011;13815;52.374;4.882;2023-03-31T09:52:05;4.22;;;1.20;;
26038;SDS011;13815;52.374;4.882;2023-03-31T09:54:45;0.65;;;0.65;;
26038;SDS011;13815;52.374;4.882;2023-03-31T09:57:15;0.47;;;0.47;;
26038;SDS011;13815;52.374;4.882;2023-03-31T09:59:51;0.80;;;0.80;;
26038;SDS011;13815;52.374;4.882;2023-03-31T10:02:23;16.55;;;2.78;;
26038;SDS011;13815;52.374;4.882;2023-03-31T10:04:58;2.20;;;1.20;;
26038;SDS011;13815;52.374;4.882;2023-03-31T10:07:25;6.20;;;1.27;;
26038;SDS011;13815;52.374;4.882;2023-03-31T10:09:51;2.17;;;1.63;;
26038;SDS011;13815;52.374;4.882;2023-03-31T10:12:19;1.77;;;1.20;;
26038;SDS011;13815;52.374;4.882;2023-03-31T10:14:50;7.20;;;2.67;;
26038;SDS011;13815;52.374;4.882;2023-03-31T10:17:19;2.05;;;0.93;;
26038;SDS011;13815;52.374;4.882;2023-03-31T10:24:49;2.67;;;1.17;;
26038;SDS011;13815;52.374;4.882;2023-03-31T10:27:20;10.40;;;2.33;;
26038;SDS011;13815;52.374;4.882;2023-03-31T10:29:50;3.78;;;1.55;;
26038;SDS011;13815;52.374;4.882;2023-03-31T10:32:27;2.53;;;0.93;;
26038;SDS011;13815;52.374;4.882;2023-03-31T10:34:57;3.25;;;1.40;;
26038;SDS011;13815;52.374;4.882;2023-03-31T10:37:28;11.05;;;1.50;;
26038;SDS011;13815;52.374;4.882;2023-03-31T10:39:56;3.60;;;1.52;;
26038;SDS011;13815;52.374;4.882;2023-03-31T10:42:23;4.00;;;1.25;;
26038;SDS011;13815;52.374;4.882;2023-03-31T10:47:54;1.80;;;1.48;;
26038;SDS011;13815;52.374;4.882;2023-03-31T10:50:28;2.65;;;1.13;;
26038;SDS011;13815;52.374;4.882;2023-03-31T10:53:03;13.07;;;1.85;;
26038;SDS011;13815;52.374;4.882;2023-03-31T10:56:13;1.13;;;1.02;;
26038;SDS011;13815;52.374;4.882;2023-03-31T11:04:04;1.17;;;1.08;;
26038;SDS011;13815;52.374;4.882;2023-03-31T11:22:52;1.52;;;0.10;;
26038;SDS011;13815;52.374;4.882;2023-03-31T11:30:57;0.00;;;0.00;;
26038;SDS011;13815;52.374;4.882;2023-03-31T11:38:39;2.90;;;0.22;;
26038;SDS011;13815;52.374;4.882;2023-03-31T11:44:01;0.00;;;0.00;;
26038;SDS011;13815;52.374;4.882;2023-03-31T11:46:47;2.28;;;0.25;;
26038;SDS011;13815;52.374;4.882;2023-03-31T11:51:56;3.00;;;0.30;;
26038;SDS011;13815;52.374;4.882;2023-03-31T11:57:01;2.00;;;0.25;;
26038;SDS011;13815;52.374;4.882;2023-03-31T11:59:31;0.10;;;0.10;;
26038;SDS011;13815;52.374;4.882;2023-03-31T12:02:08;0.22;;;0.10;;
26038;SDS011;13815;52.374;4.882;2023-03-31T12:04:43;0.10;;;0.10;;
26038;SDS011;13815;52.374;4.882;2023-03-31T12:09:53;0.00;;;0.00;;
26038;SDS011;13815;52.374;4.882;2023-03-31T12:12:41;8.90;;;0.70;;
26038;SDS011;13815;52.374;4.882;2023-03-31T12:17:51;0.00;;;0.00;;
26038;SDS011;13815;52.374;4.882;2023-03-31T12:20:40;0.00;;;0.00;;
26038;SDS011;13815;52.374;4.882;2023-03-31T12:23:13;0.00;;;0.00;;
26038;SDS011;13815;52.374;4.882;2023-03-31T12:25:53;0.00;;;0.00;;
26038;SDS011;13815;52.374;4.882;2023-03-31T12:28:22;0.00;;;0.00;;
26038;SDS011;13815;52.374;4.882;2023-03-31T12:30:49;0.00;;;0.00;;
26038;SDS011;13815;52.374;4.882;2023-03-31T12:33:25;4.68;;;0.35;;
26038;SDS011;13815;52.374;4.882;2023-03-31T12:38:40;0.00;;;0.00;;
26038;SDS011;13815;52.374;4.882;2023-03-31T12:44:10;0.00;;;0.00;;
26038;SDS011;13815;52.374;4.882;2023-03-31T12:46:42;3.20;;;0.30;;
26038;SDS011;13815;52.374;4.882;2023-03-31T12:59:36;0.00;;;0.00;;
26038;SDS011;13815;52.374;4.882;2023-03-31T13:04:34;0.00;;;0.00;;
26038;SDS011;13815;52.374;4.882;2023-03-31T13:07:04;0.00;;;0.00;;
26038;SDS011;13815;52.374;4.882;2023-03-31T13:10:22;0.00;;;0.00;;
26038;SDS011;13815;52.374;4.882;2023-03-31T13:12:41;3.10;;;0.20;;
26038;SDS011;13815;52.374;4.882;2023-03-31T13:15:20;2.28;;;0.17;;
26038;SDS011;13815;52.374;4.882;2023-03-31T13:17:58;3.30;;;0.55;;
26038;SDS011;13815;52.374;4.882;2023-03-31T13:23:05;0.25;;;0.25;;
26038;SDS011;13815;52.374;4.882;2023-03-31T13:25:32;0.22;;;0.22;;
26038;SDS011;13815;52.374;4.882;2023-03-31T13:28:12;0.70;;;0.70;;
26038;SDS011;13815;52.374;4.882;2023-03-31T13:33:06;2.03;;;0.80;;
26038;SDS011;13815;52.374;4.882;2023-03-31T13:35:34;1.40;;;1.30;;
26038;SDS011;13815;52.374;4.882;2023-03-31T13:41:04;3.72;;;1.50;;
26038;SDS011;13815;52.374;4.882;2023-03-31T13:43:41;4.68;;;1.13;;
26038;SDS011;13815;52.374;4.882;2023-03-31T13:46:15;0.80;;;0.80;;
26038;SDS011;13815;52.374;4.882;2023-03-31T13:51:58;6.03;;;1.88;;
26038;SDS011;13815;52.374;4.882;2023-03-31T14:05:23;4.30;;;0.70;;
26038;SDS011;13815;52.374;4.882;2023-03-31T14:07:58;0.68;;;0.68;;
26038;SDS011;13815;52.374;4.882;2023-03-31T14:10:29;7.28;;;1.20;;
26038;SDS011;13815;52.374;4.882;2023-03-31T14:13:06;0.35;;;0.35;;
26038;SDS011;13815;52.374;4.882;2023-03-31T14:15:37;1.40;;;1.30;;
26038;SDS011;13815;52.374;4.882;2023-03-31T14:18:04;2.72;;;2.00;;
26038;SDS011;13815;52.374;4.882;2023-03-31T14:28:18;0.00;;;0.00;;
26038;SDS011;13815;52.374;4.882;2023-03-31T14:31:00;3.10;;;0.20;;
26038;SDS011;13815;52.374;4.882;2023-03-31T14:33:53;0.00;;;0.00;;
26038;SDS011;13815;52.374;4.882;2023-03-31T14:39:10;0.00;;;0.00;;
26038;SDS011;13815;52.374;4.882;2023-03-31T14:41:37;2.35;;;0.22;;
26038;SDS011;13815;52.374;4.882;2023-03-31T14:44:04;1.75;;;0.20;;
26038;SDS011;13815;52.374;4.882;2023-03-31T14:46:31;2.35;;;0.28;;
26038;SDS011;13815;52.374;4.882;2023-03-31T14:49:19;0.00;;;0.00;;
26038;SDS011;13815;52.374;4.882;2023-03-31T14:51:46;2.78;;;0.20;;
26038;SDS011;13815;52.374;4.882;2023-03-31T14:54:16;0.00;;;0.00;;
26038;SDS011;13815;52.374;4.882;2023-03-31T14:56:42;3.03;;;0.22;;
26038;SDS011;13815;52.374;4.882;2023-03-31T14:59:15;0.00;;;0.00;;
26038;SDS011;13815;52.374;4.882;2023-03-31T15:01:43;0.00;;;0.00;;
26038;SDS011;13815;52.374;4.882;2023-03-31T15:04:11;0.00;;;0.00;;
26038;SDS011;13815;52.374;4.882;2023-03-31T15:06:43;0.00;;;0.00;;
26038;SDS011;13815;52.374;4.882;2023-03-31T15:09:12;5.43;;;0.47;;
26038;SDS011;13815;52.374;4.882;2023-03-31T15:11:59;0.00;;;0.00;;
26038;SDS011;13815;52.374;4.882;2023-03-31T15:14:29;2.75;;;0.28;;
26038;SDS011;13815;52.374;4.882;2023-03-31T15:16:58;0.00;;;0.00;;
26038;SDS011;13815;52.374;4.882;2023-03-31T15:19:26;1.42;;;0.15;;
26038;SDS011;13815;52.374;4.882;2023-03-31T15:21:57;5.57;;;0.43;;
26038;SDS011;13815;52.374;4.882;2023-03-31T15:24:29;0.65;;;0.05;;
26038;SDS011;13815;52.374;4.882;2023-03-31T15:32:42;0.00;;;0.00;;
26038;SDS011;13815;52.374;4.882;2023-03-31T15:35:01;0.00;;;0.00;;
26038;SDS011;13815;52.374;4.882;2023-03-31T15:37:41;0.00;;;0.00;;
26038;SDS011;13815;52.374;4.882;2023-03-31T15:40:21;0.00;;;0.00;;
26038;SDS011;13815;52.374;4.882;2023-03-31T15:42:52;0.32;;;0.05;;
26038;SDS011;13815;52.374;4.882;2023-03-31T15:47:51;0.00;;;0.00;;
26038;SDS011;13815;52.374;4.882;2023-03-31T15:50:19;1.20;;;0.20;;
26038;SDS011;13815;52.374;4.882;2023-03-31T15:52:50;2.55;;;0.25;;
26038;SDS011;13815;52.374;4.882;2023-03-31T15:57:49;2.85;;;0.20;;
26038;SDS011;13815;52.374;4.882;2023-03-31T16:02:56;1.92;;;0.15;;
26038;SDS011;13815;52.374;4.882;2023-03-31T16:08:15;4.20;;;0.43;;
26038;SDS011;13815;52.374;4.882;2023-03-31T16:11:04;2.63;;;0.20;;
26038;SDS011;13815;52.374;4.882;2023-03-31T16:13:33;5.20;;;2.10;;
26038;SDS011;13815;52.374;4.882;2023-03-31T16:16:04;5.05;;;1.05;;
26038;SDS011;13815;52.374;4.882;2023-03-31T16:18:33;2.42;;;0.20;;
26038;SDS011;13815;52.374;4.882;2023-03-31T16:21:02;0.00;;;0.00;;
26038;SDS011;13815;52.374;4.882;2023-03-31T16:23:32;0.77;;;0.40;;
26038;SDS011;13815;52.374;4.882;2023-03-31T16:25:59;0.20;;;0.20;;
26038;SDS011;13815;52.374;4.882;2023-03-31T16:28:26;1.70;;;0.08;;
26038;SDS011;13815;52.374;4.882;2023-03-31T16:30:55;3.60;;;0.28;;
26038;SDS011;13815;52.374;4.882;2023-03-31T16:33:25;0.30;;;0.30;;
26038;SDS011;13815;52.374;4.882;2023-03-31T16:35:52;0.70;;;0.70;;
26038;SDS011;13815;52.374;4.882;2023-03-31T16:38:20;0.75;;;0.75;;
26038;SDS011;13815;52.374;4.882;2023-03-31T16:40:48;0.80;;;0.80;;
26038;SDS011;13815;52.374;4.882;2023-03-31T16:43:22;0.43;;;0.10;;
26038;SDS011;13815;52.374;4.882;2023-03-31T16:45:52;0.80;;;0.52;;
26038;SDS011;13815;52.374;4.882;2023-03-31T16:48:20;0.70;;;0.57;;
26038;SDS011;13815;52.374;4.882;2023-03-31T16:50:47;0.32;;;0.15;;
26038;SDS011;13815;52.374;4.882;2023-03-31T16:53:15;6.13;;;1.23;;
26038;SDS011;13815;52.374;4.882;2023-03-31T16:55:44;0.00;;;0.00;;
26038;SDS011;13815;52.374;4.882;2023-03-31T16:58:10;0.00;;;0.00;;
26038;SDS011;13815;52.374;4.882;2023-03-31T17:00:36;0.20;;;0.15;;
26038;SDS011;13815;52.374;4.882;2023-03-31T17:03:04;0.00;;;0.00;;
26038;SDS011;13815;52.374;4.882;2023-03-31T17:05:30;0.00;;;0.00;;
26038;SDS011;13815;52.374;4.882;2023-03-31T17:07:57;0.00;;;0.00;;
26038;SDS011;13815;52.374;4.882;2023-03-31T17:10:24;0.00;;;0.00;;
26038;SDS011;13815;52.374;4.882;2023-03-31T17:12:50;0.00;;;0.00;;
26038;SDS011;13815;52.374;4.882;2023-03-31T17:15:15;0.00;;;0.00;;
26038;SDS011;13815;52.374;4.882;2023-03-31T17:17:41;0.00;;;0.00;;
26038;SDS011;13815;52.374;4.882;2023-03-31T17:20:07;0.00;;;0.00;;
26038;SDS011;13815;52.374;4.882;2023-03-31T17:22:33;0.00;;;0.00;;
26038;SDS011;13815;52.374;4.882;2023-03-31T17:24:59;0.77;;;0.10;;
26038;SDS011;13815;52.374;4.882;2023-03-31T17:27:25;0.00;;;0.00;;
26038;SDS011;13815;52.374;4.882;2023-03-31T17:29:51;0.00;;;0.00;;
26038;SDS011;13815;52.374;4.882;2023-03-31T17:32:17;0.00;;;0.00;;
26038;SDS011;13815;52.374;4.882;2023-03-31T17:34:44;0.75;;;0.20;;
26038;SDS011;13815;52.374;4.882;2023-03-31T17:37:12;0.00;;;0.00;;
26038;SDS011;13815;52.374;4.882;2023-03-31T17:39:37;0.03;;;0.00;;
26038;SDS011;13815;52.374;4.882;2023-03-31T17:42:03;0.00;;;0.00;;
26038;SDS011;13815;52.374;4.882;2023-03-31T17:44:29;0.00;;;0.00;;
26038;SDS011;13815;52.374;4.882;2023-03-31T17:46:54;0.00;;;0.00;;
26038;SDS011;13815;52.374;4.882;2023-03-31T17:49:20;0.00;;;0.00;;
26038;SDS011;13815;52.374;4.882;2023-03-31T17:51:45;0.00;;;0.00;;
26038;SDS011;13815;52.374;4.882;2023-03-31T17:54:11;0.57;;;0.15;;
26038;SDS011;13815;52.374;4.882;2023-03-31T17:56:36;0.00;;;0.00;;
26038;SDS011;13815;52.374;4.882;2023-03-31T17:59:02;0.10;;;0.05;;
26038;SDS011;13815;52.374;4.882;2023-03-31T18:01:28;0.52;;;0.25;;
26038;SDS011;13815;52.374;4.882;2023-03-31T18:03:54;0.00;;;0.00;;
26038;SDS011;13815;52.374;4.882;2023-03-31T18:06:20;0.00;;;0.00;;
26038;SDS011;13815;52.374;4.882;2023-03-31T18:08:45;1.10;;;0.20;;
26038;SDS011;13815;52.374;4.882;2023-03-31T18:11:11;0.00;;;0.00;;